Milford, Massachusetts
Current Conditions -  °F | °C
As of 10:35 AM on Saturday 22 Nov 2014 (Local Time) from KSFZ Reporting Station
Clear Clear  
Wind Chill: 29°   Ceiling: Unl
Heat Index: 36°   Visibility: 10mi
Dew Point:   Wind: 8mph
Humidity: 33%   Direction: 230°SW
Pressure: 30.34"   Gusts: 17mph
Location:  42.14°N, 71.52°W
Report Text: KSFZ 221535Z 23007G15KT 200V260 10SM CLR 02/M13 A3034 RMK AO1
Loading
Personal Weather Stations






























Interactive Weather Map New forecast layout! Learn more

10-Day Weather Forecast

Advertisements
Track Severe Weather on mobile